Orlando, Florida
Traffic Map
Current Weather Conditions
Orlando, Florida
Clear
Clear
26°
Feels Like: 28°
Wind Chill: 26° Ceiling: Unl
Heat Index: 28° Visibility: 10mi
Dew Point: 23° Wind: 0mph
Humidity: 84% Direction: ° ()
Pressure: 30.1in Gusts: 0mph
Raw Report DataKORL 010653Z AUTO 00000KT 10SM CLR 26/23 A3010 RMK AO2 SLP196 T02610233
Traffic Incident Summary
Active as of:
Severity:
Category:
InformationThere was an issue retrieving the traffic information for this location. Please try a different location or try again shortly.
Advertisements
Track Severe Weather on mobile